Time;durP1;ratioP1;P1;durP2;ratioP2;P2;SDS_P1;SDS_P2;PMS_P1;PMS_P2;Temp;Humidity;BMP_temperature;BMP_pressure;BME280_temperature;BME280_humidity;BME280_pressure;Samples;Min_cycle;Max_cycle;Signal;HPM_P1;HPM_P2
2021/06/02 00:02:01;;;;;;;5.30;3.47;;;16.20;70.70;;;;;;5028244;28;20099;-45
2021/06/02 00:04:33;;;;;;;4.80;3.40;;;16.20;71.30;;;;;;5027748;28;20065;-45
2021/06/02 00:07:02;;;;;;;6.00;3.83;;;16.20;71.30;;;;;;5028196;28;20040;-45
2021/06/02 00:09:28;;;;;;;11.40;3.20;;;16.10;72.30;;;;;;5027515;28;20091;-44
2021/06/02 00:11:58;;;;;;;6.60;3.90;;;16.10;72.30;;;;;;5028285;28;20030;-44
2021/06/02 00:14:26;;;;;;;5.97;3.83;;;16.10;73.40;;;;;;5028074;28;20495;-44
2021/06/02 00:16:53;;;;;;;5.22;3.50;;;16.10;74.40;;;;;;5028071;28;20037;-44
2021/06/02 00:19:20;;;;;;;5.63;3.78;;;16.00;74.60;;;;;;5027342;28;20116;-45
2021/06/02 00:21:45;;;;;;;4.30;3.60;;;16.00;75.60;;;;;;5030384;28;20570;-45
2021/06/02 00:24:11;;;;;;;6.30;3.35;;;16.00;76.50;;;;;;5031726;28;20075;-45
2021/06/02 00:26:38;;;;;;;5.55;3.50;;;15.90;77.90;;;;;;5031863;28;20025;-45
2021/06/02 00:29:05;;;;;;;5.32;3.72;;;15.90;79.00;;;;;;5030897;28;20037;-44
2021/06/02 00:31:32;;;;;;;6.65;4.15;;;15.90;81.30;;;;;;5013636;28;20029;-44
2021/06/02 00:33:59;;;;;;;8.55;3.65;;;15.90;82.50;;;;;;5030693;28;20017;-45
2021/06/02 00:36:26;;;;;;;5.63;3.80;;;15.90;83.80;;;;;;5031437;28;20053;-45
2021/06/02 00:38:53;;;;;;;5.72;4.20;;;15.80;86.80;;;;;;5030971;28;20171;-44
2021/06/02 00:41:19;;;;;;;6.03;3.55;;;15.80;90.10;;;;;;5031395;28;20398;-45
2021/06/02 00:43:47;;;;;;;5.30;3.95;;;15.80;90.50;;;;;;5031239;28;20026;-44
2021/06/02 00:46:14;;;;;;;6.28;4.32;;;15.80;91.80;;;;;;5013483;28;20079;-44
2021/06/02 00:48:42;;;;;;;6.68;3.55;;;15.70;92.50;;;;;;5030478;28;20025;-46
2021/06/02 00:51:09;;;;;;;5.07;3.58;;;15.70;93.60;;;;;;5031352;28;20021;-44
2021/06/02 00:53:36;;;;;;;6.88;4.03;;;15.70;94.40;;;;;;5031191;28;20422;-44
2021/06/02 00:56:07;;;;;;;5.53;4.30;;;15.70;96.20;;;;;;5031149;28;20029;-45
2021/06/02 00:58:41;;;;;;;7.20;3.83;;;15.60;96.70;;;;;;5030661;28;20158;-44
2021/06/02 01:01:07;;;;;;;7.72;4.00;;;15.60;96.80;;;;;;5030950;28;20376;-45
2021/06/02 01:03:35;;;;;;;5.75;3.67;;;15.60;97.50;;;;;;5030496;28;20037;-45
2021/06/02 01:06:00;;;;;;;4.70;3.35;;;15.60;98.10;;;;;;5030859;28;20082;-44
2021/06/02 01:08:30;;;;;;;6.00;3.78;;;15.60;98.20;;;;;;5030322;28;20108;-45
2021/06/02 01:10:56;;;;;;;5.93;3.15;;;15.60;98.80;;;;;;5030906;28;20032;-48
2021/06/02 01:13:22;;;;;;;4.88;3.10;;;15.60;98.50;;;;;;5030767;28;20022;-46
2021/06/02 01:15:50;;;;;;;5.53;3.33;;;15.60;99.20;;;;;;5030981;28;20041;-44
2021/06/02 01:18:17;;;;;;;4.35;3.35;;;15.50;99.90;;;;;;5029855;28;20021;-45
2021/06/02 01:20:44;;;;;;;6.13;3.28;;;15.50;99.90;;;;;;5030766;28;20403;-45
2021/06/02 01:23:11;;;;;;;4.93;3.00;;;15.50;99.90;;;;;;5012758;28;20483;-45
2021/06/02 01:25:41;;;;;;;4.35;3.17;;;15.50;99.90;;;;;;5030446;28;20071;-45
2021/06/02 01:28:07;;;;;;;3.38;2.72;;;15.50;99.90;;;;;;5030202;28;20014;-44
2021/06/02 01:30:33;;;;;;;2.50;2.30;;;15.40;99.90;;;;;;5030671;28;20033;-44
2021/06/02 01:33:28;;;;;;;7.15;3.53;;;15.40;99.90;;;;;;5029556;28;20108;-44
2021/06/02 01:36:05;;;;;;;3.50;2.70;;;15.40;99.90;;;;;;5023778;28;20040;-45
2021/06/02 01:39:19;;;;;;;4.95;2.70;;;15.40;99.90;;;;;;5020774;28;20052;-44
2021/06/02 01:42:12;;;;;;;5.40;2.75;;;15.30;99.90;;;;;;5020934;28;20109;-44
2021/06/02 01:44:52;;;;;;;5.22;2.40;;;15.30;99.90;;;;;;5010374;28;20395;-45
2021/06/02 01:47:24;;;;;;;2.75;2.15;;;15.20;99.90;;;;;;5010134;28;20026;-44
2021/06/02 01:50:11;;;;;;;3.90;2.20;;;15.30;99.90;;;;;;5010391;28;20105;-44
2021/06/02 01:53:12;;;;;;;3.60;2.17;;;15.30;99.90;;;;;;5010655;28;20041;-44
2021/06/02 01:56:13;;;;;;;7.15;2.25;;;15.20;99.50;;;;;;5010378;28;20022;-44
2021/06/02 01:59:32;;;;;;;4.15;2.38;;;15.20;99.50;;;;;;5009835;28;20401;-44
2021/06/02 02:02:19;;;;;;;3.60;2.03;;;15.20;99.00;;;;;;5021372;28;20040;-45
2021/06/02 02:05:03;;;;;;;3.55;2.45;;;15.20;99.00;;;;;;5028741;28;20018;-46
2021/06/02 02:07:57;;;;;;;5.78;2.15;;;15.20;99.90;;;;;;5023267;28;20033;-45
2021/06/02 02:10:38;;;;;;;2.67;1.63;;;15.10;99.40;;;;;;5020289;28;20128;-45
2021/06/02 02:13:35;;;;;;;2.40;2.20;;;15.10;98.80;;;;;;5020282;28;20041;-45
2021/06/02 02:16:06;;;;;;;3.28;1.98;;;15.10;99.10;;;;;;5020081;28;20224;-45
2021/06/02 02:18:41;;;;;;;3.38;2.00;;;15.10;98.70;;;;;;5018804;28;20551;-46
2021/06/02 02:21:29;;;;;;;3.78;1.98;;;15.00;98.30;;;;;;5026949;28;20104;-44
2021/06/02 02:24:12;;;;;;;3.50;2.25;;;15.00;98.30;;;;;;5007853;28;20408;-44
2021/06/02 02:26:57;;;;;;;4.13;2.25;;;14.90;99.30;;;;;;5029274;28;20501;-45
2021/06/02 02:29:40;;;;;;;3.63;1.67;;;14.90;99.10;;;;;;5025512;28;20061;-45
2021/06/02 02:32:34;;;;;;;2.67;1.80;;;14.80;98.60;;;;;;5019027;28;20025;-45
2021/06/02 02:35:24;;;;;;;2.85;1.90;;;14.80;99.00;;;;;;5025151;28;20028;-44
2021/06/02 02:38:14;;;;;;;4.30;1.85;;;14.80;98.50;;;;;;5026239;28;20148;-45
2021/06/02 02:41:04;;;;;;;2.70;1.55;;;14.80;99.40;;;;;;5020389;28;20017;-45
2021/06/02 02:43:48;;;;;;;2.40;1.80;;;14.70;99.80;;;;;;5026997;28;20026;-44
2021/06/02 02:46:38;;;;;;;3.33;1.67;;;14.70;99.10;;;;;;5020562;28;20086;-44
2021/06/02 02:49:29;;;;;;;7.25;2.45;;;14.70;98.20;;;;;;5018422;28;20293;-45
2021/06/02 02:52:32;;;;;;;1.67;1.42;;;14.70;99.00;;;;;;5017319;28;20029;-45
2021/06/02 02:55:25;;;;;;;3.53;1.67;;;14.60;98.90;;;;;;5009752;28;20033;-46
2021/06/02 02:58:25;;;;;;;2.03;1.83;;;14.60;99.60;;;;;;5004257;28;20042;-44
2021/06/02 03:00:59;;;;;;;4.72;1.63;;;14.50;99.00;;;;;;5009482;28;20108;-45
2021/06/02 03:03:41;;;;;;;5.47;1.95;;;14.40;99.40;;;;;;5015713;28;20029;-45
2021/06/02 03:06:30;;;;;;;4.75;1.50;;;14.40;99.50;;;;;;5029105;28;20551;-46
2021/06/02 03:09:02;;;;;;;2.55;1.98;;;14.40;99.10;;;;;;5028487;28;20029;-48
2021/06/02 03:11:50;;;;;;;4.45;1.77;;;14.40;99.40;;;;;;5028871;28;20029;-44
2021/06/02 03:14:19;;;;;;;1.75;1.40;;;14.30;99.20;;;;;;5011139;28;20032;-45
2021/06/02 03:16:55;;;;;;;1.92;1.65;;;14.30;99.70;;;;;;5028755;28;20594;-46
2021/06/02 03:19:32;;;;;;;1.45;1.35;;;14.30;99.90;;;;;;5027867;28;20390;-44
2021/06/02 03:22:02;;;;;;;2.40;1.60;;;14.20;99.90;;;;;;5010867;28;20083;-45
2021/06/02 03:25:00;;;;;;;6.13;2.03;;;14.20;99.90;;;;;;5028716;28;20025;-45
2021/06/02 03:27:26;;;;;;;6.03;1.77;;;14.20;99.50;;;;;;5027927;28;20029;-45
2021/06/02 03:30:09;;;;;;;3.67;1.90;;;14.30;99.70;;;;;;5028505;28;20030;-45
2021/06/02 03:32:55;;;;;;;2.42;1.45;;;14.20;99.60;;;;;;5010955;28;20022;-44
2021/06/02 03:35:31;;;;;;;1.60;1.50;;;14.30;99.70;;;;;;5008644;28;20472;-45
2021/06/02 03:37:57;;;;;;;2.65;1.33;;;14.30;99.60;;;;;;5008051;28;20184;-44
2021/06/02 03:40:52;;;;;;;2.17;1.70;;;14.30;99.60;;;;;;5008520;28;20117;-44
2021/06/02 03:43:40;;;;;;;5.95;1.45;;;14.20;99.60;;;;;;5009003;28;20033;-44
2021/06/02 03:46:24;;;;;;;2.40;1.63;;;14.20;99.80;;;;;;5009080;28;20033;-44
2021/06/02 03:48:56;;;;;;;3.15;1.58;;;14.20;99.90;;;;;;5007894;28;20022;-45
2021/06/02 03:51:35;;;;;;;6.15;2.00;;;14.20;99.90;;;;;;5008669;28;20022;-45
2021/06/02 03:54:21;;;;;;;1.75;1.40;;;14.10;99.90;;;;;;4990950;28;20080;-44
2021/06/02 03:56:57;;;;;;;4.25;1.73;;;14.00;99.90;;;;;;5011185;28;20030;-45
2021/06/02 03:59:29;;;;;;;2.58;1.50;;;14.10;99.90;;;;;;5011849;28;20109;-44
2021/06/02 04:02:02;;;;;;;5.35;1.50;;;14.00;99.90;;;;;;5015020;28;20057;-45
2021/06/02 04:04:42;;;;;;;2.22;1.40;;;14.00;99.90;;;;;;5026801;28;20034;-44
2021/06/02 04:07:11;;;;;;;2.63;1.48;;;14.00;99.90;;;;;;5031661;28;20048;-45
2021/06/02 04:09:42;;;;;;;1.95;1.55;;;14.00;99.90;;;;;;5031625;28;20029;-46
2021/06/02 04:12:17;;;;;;;4.20;1.60;;;14.00;99.90;;;;;;5032172;28;20253;-45
2021/06/02 04:14:52;;;;;;;2.75;1.70;;;14.00;99.90;;;;;;5032265;28;20056;-45
2021/06/02 04:17:21;;;;;;;5.75;1.88;;;14.00;99.90;;;;;;5031475;28;20029;-44
2021/06/02 04:19:49;;;;;;;3.47;1.60;;;14.00;99.90;;;;;;5030029;28;20025;-44
2021/06/02 04:22:18;;;;;;;1.55;1.35;;;14.00;99.90;;;;;;5030524;28;20022;-43
2021/06/02 04:24:45;;;;;;;2.63;1.60;;;14.00;99.90;;;;;;5013896;28;20025;-44
2021/06/02 04:27:14;;;;;;;4.13;1.70;;;13.90;99.90;;;;;;5031585;28;20048;-47
2021/06/02 04:29:43;;;;;;;4.93;1.70;;;13.90;99.90;;;;;;5013153;28;20403;-43
2021/06/02 04:32:10;;;;;;;3.00;1.80;;;14.00;99.90;;;;;;5022482;28;20025;-44
2021/06/02 04:34:36;;;;;;;5.20;1.98;;;14.00;99.90;;;;;;5023622;28;20022;-45
2021/06/02 04:37:04;;;;;;;2.53;1.80;;;14.10;99.90;;;;;;5016343;28;20105;-44
2021/06/02 04:39:31;;;;;;;2.03;1.40;;;14.10;99.90;;;;;;5010849;28;20061;-44
2021/06/02 04:41:58;;;;;;;5.63;1.55;;;14.10;99.90;;;;;;5019192;28;20475;-43
2021/06/02 04:44:26;;;;;;;2.50;1.77;;;14.10;99.90;;;;;;5021522;28;20522;-46
2021/06/02 04:46:52;;;;;;;9.73;1.95;;;14.20;99.90;;;;;;5010020;28;20250;-44
2021/06/02 04:49:19;;;;;;;3.15;2.00;;;14.20;99.90;;;;;;5010890;28;20014;-44
2021/06/02 04:52:00;;;;;;;3.80;1.70;;;14.20;99.90;;;;;;5011546;28;20435;-45
2021/06/02 04:54:50;;;;;;;2.47;2.10;;;14.20;99.90;;;;;;5030642;28;20030;-45
2021/06/02 04:57:47;;;;;;;3.27;1.80;;;14.20;99.90;;;;;;5023634;28;20033;-45
2021/06/02 05:00:35;;;;;;;3.80;2.05;;;14.20;99.90;;;;;;5018331;28;20836;-44
2021/06/02 05:03:28;;;;;;;3.70;1.90;;;14.20;99.90;;;;;;5013191;28;20091;-45
2021/06/02 05:06:12;;;;;;;2.95;2.10;;;14.20;99.90;;;;;;5030823;28;20262;-44
2021/06/02 05:09:03;;;;;;;3.42;2.25;;;14.20;99.90;;;;;;5020938;28;20064;-44
2021/06/02 05:11:48;;;;;;;6.78;2.33;;;14.10;99.90;;;;;;5029366;28;20036;-44
2021/06/02 05:14:49;;;;;;;3.13;2.00;;;14.10;99.90;;;;;;5009531;28;20101;-44
2021/06/02 05:17:32;;;;;;;2.92;2.25;;;14.10;99.90;;;;;;5009898;28;20383;-44
2021/06/02 05:20:24;;;;;;;4.40;2.30;;;14.10;99.90;;;;;;5043711;28;20021;-44
2021/06/02 05:23:10;;;;;;;3.88;2.08;;;14.00;99.90;;;;;;5044406;28;20105;-44
2021/06/02 05:25:55;;;;;;;8.13;2.33;;;14.00;99.90;;;;;;5021908;28;20029;-44
2021/06/02 05:28:51;;;;;;;9.00;2.20;;;14.10;99.90;;;;;;5010146;28;20431;-45
2021/06/02 05:31:54;;;;;;;6.18;1.92;;;14.00;99.90;;;;;;5025772;28;20021;-44
2021/06/02 05:34:44;;;;;;;3.08;2.38;;;14.10;99.90;;;;;;5029214;28;20025;-44
2021/06/02 05:37:16;;;;;;;10.77;2.55;;;14.10;99.90;;;;;;5028908;28;20095;-44
2021/06/02 05:40:12;;;;;;;6.18;2.10;;;14.10;99.90;;;;;;5041101;28;20033;-46
2021/06/02 05:42:57;;;;;;;4.90;2.38;;;14.10;99.90;;;;;;5015917;28;20454;-45
2021/06/02 05:45:42;;;;;;;7.47;2.58;;;14.20;99.90;;;;;;5009251;28;20105;-45
2021/06/02 05:48:07;;;;;;;5.40;2.67;;;14.20;99.90;;;;;;5008577;28;20200;-44
2021/06/02 05:50:59;;;;;;;5.13;3.08;;;14.20;99.90;;;;;;5011742;28;20037;-44
2021/06/02 05:53:40;;;;;;;7.10;2.45;;;14.20;99.90;;;;;;5019476;28;20026;-45
2021/06/02 05:56:50;;;;;;;5.38;2.78;;;14.10;99.90;;;;;;5019482;28;20023;-45
2021/06/02 05:59:31;;;;;;;4.47;2.38;;;14.10;99.90;;;;;;4947074;29;20066;-44
2021/06/02 06:02:16;;;;;;;3.92;2.65;;;14.00;99.90;;;;;;5023288;28;20041;-45
2021/06/02 06:05:06;;;;;;;9.27;2.50;;;14.00;99.90;;;;;;5024322;28;20038;-45
2021/06/02 06:08:06;;;;;;;5.32;2.30;;;14.00;99.90;;;;;;5020799;28;20033;-45
2021/06/02 06:11:20;;;;;;;4.07;2.83;;;14.00;99.90;;;;;;5009958;28;20029;-44
2021/06/02 06:14:00;;;;;;;8.40;2.85;;;14.00;99.90;;;;;;5017384;28;20075;-45
2021/06/02 06:16:54;;;;;;;5.57;2.37;;;14.00;99.90;;;;;;5023339;28;20430;-44
2021/06/02 06:20:05;;;;;;;5.88;2.90;;;14.10;99.90;;;;;;5021027;28;20022;-47
2021/06/02 06:22:58;;;;;;;4.68;3.08;;;14.30;99.90;;;;;;5025740;28;20189;-46
2021/06/02 06:25:27;;;;;;;4.18;2.90;;;14.50;99.90;;;;;;5027518;28;20083;-45
2021/06/02 06:28:02;;;;;;;7.90;2.63;;;14.50;99.90;;;;;;5029270;28;20072;-45
2021/06/02 06:30:34;;;;;;;7.88;3.00;;;14.70;99.90;;;;;;5029201;28;20022;-44
2021/06/02 06:33:08;;;;;;;12.07;2.90;;;14.80;99.90;;;;;;5017713;28;20040;-44
2021/06/02 06:35:38;;;;;;;5.10;2.60;;;14.90;99.90;;;;;;5010917;28;20033;-47
2021/06/02 06:38:07;;;;;;;4.10;2.60;;;14.90;99.90;;;;;;5028891;28;20025;-45
2021/06/02 06:40:35;;;;;;;6.80;3.30;;;15.10;99.90;;;;;;5029089;28;20087;-44
2021/06/02 06:43:04;;;;;;;4.22;2.58;;;15.10;99.90;;;;;;5010903;28;20365;-45
2021/06/02 06:45:35;;;;;;;5.32;2.72;;;15.10;99.90;;;;;;5028945;28;20038;-45
2021/06/02 06:48:07;;;;;;;6.80;2.83;;;15.30;99.90;;;;;;5026747;28;20017;-47
2021/06/02 06:50:33;;;;;;;5.32;2.70;;;15.40;99.90;;;;;;5027832;28;20033;-44
2021/06/02 06:53:03;;;;;;;3.88;2.67;;;15.50;99.90;;;;;;5028799;28;20395;-45
2021/06/02 06:55:29;;;;;;;4.28;2.45;;;15.80;99.90;;;;;;5028758;28;20099;-45
2021/06/02 06:57:56;;;;;;;8.48;2.88;;;16.00;99.90;;;;;;5028077;28;20192;-46
2021/06/02 07:00:25;;;;;;;5.05;3.75;;;16.20;99.90;;;;;;5015117;28;20029;-44
2021/06/02 07:02:51;;;;;;;5.82;2.65;;;16.40;99.90;;;;;;5009999;28;20034;-46
2021/06/02 07:05:19;;;;;;;5.75;2.67;;;16.60;99.90;;;;;;5013647;28;20506;-45
2021/06/02 07:07:45;;;;;;;5.55;2.92;;;16.80;99.90;;;;;;5025743;28;20560;-45
2021/06/02 07:10:13;;;;;;;4.78;2.50;;;16.80;99.90;;;;;;5027853;28;20116;-47
2021/06/02 07:12:43;;;;;;;3.90;2.50;;;16.80;99.90;;;;;;5026794;28;20013;-45
2021/06/02 07:15:11;;;;;;;5.35;2.67;;;16.80;99.90;;;;;;5012690;28;20021;-46
2021/06/02 07:17:42;;;;;;;7.85;3.22;;;16.60;99.90;;;;;;5008704;28;20579;-46
2021/06/02 07:20:13;;;;;;;6.68;2.88;;;16.80;99.90;;;;;;5035851;28;20072;-46
2021/06/02 07:22:45;;;;;;;4.57;2.85;;;16.80;99.90;;;;;;5010792;28;20022;-47
2021/06/02 07:25:15;;;;;;;13.68;2.85;;;17.10;99.90;;;;;;5028515;28;20510;-45
2021/06/02 07:27:40;;;;;;;3.53;2.42;;;17.40;99.90;;;;;;5027196;28;20029;-47
2021/06/02 07:30:07;;;;;;;8.48;3.22;;;17.60;99.90;;;;;;5027684;28;20490;-47
2021/06/02 07:32:32;;;;;;;4.15;2.55;;;17.70;99.90;;;;;;5009706;28;20064;-44
2021/06/02 07:34:58;;;;;;;5.00;3.05;;;17.80;99.90;;;;;;5028095;28;20060;-47
2021/06/02 07:37:23;;;;;;;7.00;3.00;;;17.90;99.90;;;;;;5027020;28;20033;-48
2021/06/02 07:39:49;;;;;;;6.00;3.13;;;17.90;99.90;;;;;;5028343;28;20057;-47
2021/06/02 07:42:14;;;;;;;6.07;3.05;;;17.70;99.90;;;;;;5028728;28;20022;-47
2021/06/02 07:44:40;;;;;;;6.82;3.30;;;17.70;99.90;;;;;;5015459;28;20026;-48
2021/06/02 07:47:06;;;;;;;5.63;3.20;;;17.80;99.90;;;;;;5008570;28;20030;-45
2021/06/02 07:49:31;;;;;;;8.07;3.25;;;17.90;99.90;;;;;;4990012;28;20026;-46
2021/06/02 07:52:00;;;;;;;7.47;3.40;;;18.00;99.90;;;;;;4990940;28;20026;-45
2021/06/02 07:54:26;;;;;;;6.70;2.95;;;18.30;99.90;;;;;;5020026;28;20467;-44
2021/06/02 07:56:53;;;;;;;3.85;2.88;;;18.60;99.90;;;;;;5010547;28;20505;-45
2021/06/02 07:59:18;;;;;;;9.95;3.58;;;19.00;99.90;;;;;;5013855;28;20037;-46
2021/06/02 08:01:45;;;;;;;7.85;3.42;;;19.10;99.90;;;;;;5022461;28;20394;-45
2021/06/02 08:04:11;;;;;;;4.60;2.92;;;19.10;99.90;;;;;;5027897;28;20034;-45
2021/06/02 08:06:37;;;;;;;3.38;2.97;;;19.20;99.90;;;;;;5010455;28;20021;-45
2021/06/02 08:09:03;;;;;;;4.25;2.80;;;19.20;99.90;;;;;;5027547;28;20095;-45
2021/06/02 08:11:29;;;;;;;6.28;2.97;;;19.00;99.90;;;;;;5028106;28;20029;-44
2021/06/02 08:13:54;;;;;;;5.78;3.17;;;18.80;99.90;;;;;;5008693;28;20029;-46
2021/06/02 08:16:20;;;;;;;6.68;3.22;;;18.90;99.90;;;;;;5028244;28;20037;-45
2021/06/02 08:18:47;;;;;;;4.00;2.78;;;19.70;99.90;;;;;;5027354;28;20415;-46
2021/06/02 08:21:13;;;;;;;4.88;2.80;;;21.00;99.10;;;;;;5027594;28;20030;-45
2021/06/02 08:23:38;;;;;;;6.15;3.22;;;21.80;96.30;;;;;;5027910;28;20037;-46
2021/06/02 08:26:05;;;;;;;5.15;3.20;;;22.50;94.70;;;;;;5028162;28;20029;-46
2021/06/02 08:28:31;;;;;;;3.65;2.72;;;23.40;89.20;;;;;;5026262;28;20136;-45
2021/06/02 08:30:57;;;;;;;7.65;2.92;;;23.90;83.80;;;;;;5027049;28;20124;-46
2021/06/02 08:33:22;;;;;;;4.32;2.60;;;24.10;83.10;;;;;;5027209;28;20458;-47
2021/06/02 08:35:47;;;;;;;5.30;2.83;;;25.10;77.00;;;;;;5025163;28;20071;-45
2021/06/02 08:38:13;;;;;;;4.32;2.65;;;25.10;74.10;;;;;;5007507;28;20120;-46
2021/06/02 08:40:39;;;;;;;5.28;2.95;;;25.20;72.80;;;;;;5007890;28;20030;-47
2021/06/02 08:43:05;;;;;;;5.75;3.33;;;25.60;68.40;;;;;;5011102;28;20590;-46
2021/06/02 08:45:30;;;;;;;5.40;2.97;;;25.20;69.80;;;;;;5028378;28;20098;-46
2021/06/02 08:47:55;;;;;;;8.45;3.40;;;24.70;71.20;;;;;;5030338;28;20036;-45
2021/06/02 08:50:21;;;;;;;5.53;3.67;;;24.60;69.80;;;;;;5031105;28;20026;-45
2021/06/02 08:52:48;;;;;;;6.72;3.47;;;24.10;72.80;;;;;;5031550;28;20025;-45
2021/06/02 08:55:21;;;;;;;7.80;3.42;;;23.80;73.70;;;;;;5031069;28;20037;-46
2021/06/02 08:57:49;;;;;;;5.22;3.17;;;25.00;71.20;;;;;;5026498;28;20120;-46
2021/06/02 09:00:17;;;;;;;4.75;3.15;;;25.40;70.30;;;;;;5031121;28;20026;-46
2021/06/02 09:02:45;;;;;;;5.43;3.42;;;26.70;68.60;;;;;;5031261;28;20126;-45
2021/06/02 09:05:12;;;;;;;4.43;3.17;;;27.60;65.50;;;;;;5028778;28;20021;-44
2021/06/02 09:07:40;;;;;;;8.30;2.88;;;28.50;61.40;;;;;;5030363;28;20080;-44
2021/06/02 09:10:10;;;;;;;5.32;2.67;;;29.20;59.10;;;;;;5027538;28;20067;-46
2021/06/02 09:12:42;;;;;;;7.13;3.08;;;30.10;55.60;;;;;;5026388;28;20025;-46
2021/06/02 09:15:16;;;;;;;6.15;3.13;;;31.10;53.50;;;;;;5030860;28;20026;-46
2021/06/02 09:17:56;;;;;;;3.90;3.15;;;32.00;48.60;;;;;;5028958;28;20026;-45
2021/06/02 09:20:33;;;;;;;;;;;32.90;46.80;;;;;;5011196;28;20056;-45
2021/06/02 09:23:00;;;;;;;4.22;3.05;;;32.70;45.50;;;;;;5010796;28;19905;-47
2021/06/02 09:25:26;;;;;;;9.15;3.05;;;32.50;47.30;;;;;;5014588;28;20052;-46
2021/06/02 09:27:56;;;;;;;5.13;3.28;;;33.40;45.50;;;;;;5030115;28;20021;-47
2021/06/02 09:30:38;;;;;;;6.22;3.20;;;32.90;44.60;;;;;;5030579;28;20025;-46
2021/06/02 09:33:04;;;;;;;4.05;3.08;;;33.00;46.10;;;;;;5013673;28;20037;-48
2021/06/02 09:35:41;;;;;;;8.65;3.45;;;34.50;43.20;;;;;;5026685;28;20029;-45
2021/06/02 09:38:21;;;;;;;4.07;2.92;;;33.80;42.60;;;;;;5013321;28;20084;-44
2021/06/02 09:40:53;;;;;;;4.90;3.00;;;33.80;43.10;;;;;;5028156;28;20014;-45
2021/06/02 09:43:32;;;;;;;7.88;2.88;;;34.10;43.00;;;;;;5024930;28;20053;-48
2021/06/02 09:46:09;;;;;;;5.07;3.10;;;34.40;42.40;;;;;;5010421;28;20506;-45
2021/06/02 09:48:51;;;;;;;4.63;2.95;;;34.60;41.80;;;;;;5009911;28;20038;-46
2021/06/02 09:51:36;;;;;;;4.85;3.13;;;35.80;40.50;;;;;;5009944;28;20495;-45
2021/06/02 09:54:05;;;;;;;3.45;2.97;;;35.50;40.50;;;;;;5009295;28;20030;-44
2021/06/02 09:56:39;;;;;;;3.10;2.78;;;35.30;40.00;;;;;;5023712;28;20032;-46
2021/06/02 09:59:06;;;;;;;5.32;3.17;;;35.30;40.20;;;;;;5022419;28;20517;-46
2021/06/02 10:01:58;;;;;;;4.13;2.97;;;35.50;40.10;;;;;;5015791;28;20079;-48
2021/06/02 10:04:42;;;;;;;6.05;2.78;;;35.50;39.60;;;;;;5029589;28;20022;-47
2021/06/02 10:07:19;;;;;;;5.07;2.92;;;35.20;40.90;;;;;;5011402;28;20041;-45
2021/06/02 10:09:46;;;;;;;5.82;2.90;;;35.60;40.60;;;;;;5037507;28;20492;-45
2021/06/02 10:12:12;;;;;;;3.05;2.75;;;35.80;39.30;;;;;;5009912;28;20018;-47
2021/06/02 10:14:39;;;;;;;3.47;2.60;;;36.00;40.30;;;;;;5010079;28;20021;-46
2021/06/02 10:17:24;;;;;;;4.05;3.38;;;36.10;39.30;;;;;;5009874;28;20467;-47
2021/06/02 10:19:49;;;;;;;5.18;3.10;;;36.00;39.60;;;;;;5015081;28;20175;-48
2021/06/02 10:22:42;;;;;;;4.07;2.75;;;35.40;39.10;;;;;;5028361;28;20539;-45
2021/06/02 10:25:10;;;;;;;4.85;3.33;;;36.40;38.70;;;;;;5025298;28;20033;-46
2021/06/02 10:27:36;;;;;;;4.20;3.03;;;35.80;38.50;;;;;;5028276;28;20402;-46
2021/06/02 10:30:03;;;;;;;2.80;2.50;;;36.30;39.10;;;;;;5008003;28;20407;-46
2021/06/02 10:32:28;;;;;;;8.10;2.97;;;36.70;39.10;;;;;;5029219;28;20033;-47
2021/06/02 10:34:54;;;;;;;4.45;2.95;;;36.30;38.30;;;;;;5028534;28;20021;-46
2021/06/02 10:37:22;;;;;;;6.30;2.72;;;35.90;39.50;;;;;;5028536;28;20100;-46
2021/06/02 10:39:59;;;;;;;4.32;2.83;;;36.50;38.60;;;;;;5027055;28;20057;-46
2021/06/02 10:42:35;;;;;;;4.50;2.88;;;36.30;39.70;;;;;;5019696;28;20464;-46
2021/06/02 10:45:11;;;;;;;4.53;3.40;;;36.80;38.70;;;;;;5026272;28;20060;-46
2021/06/02 10:47:36;;;;;;;4.32;2.80;;;37.10;37.90;;;;;;5024045;28;20112;-45
2021/06/02 10:50:02;;;;;;;5.20;2.60;;;36.80;37.20;;;;;;5026004;28;20108;-45
2021/06/02 10:52:41;;;;;;;6.30;3.40;;;36.70;37.60;;;;;;5028733;28;20029;-46
2021/06/02 10:55:36;;;;;;;3.70;3.00;;;36.50;38.50;;;;;;5025030;28;20165;-46
2021/06/02 10:58:18;;;;;;;4.55;2.80;;;36.10;38.10;;;;;;5007415;28;20041;-46
2021/06/02 11:00:44;;;;;;;5.55;3.10;;;36.50;37.70;;;;;;5019695;28;20069;-47
2021/06/02 11:03:42;;;;;;;3.08;2.80;;;36.30;37.90;;;;;;5009768;28;20057;-46
2021/06/02 11:06:13;;;;;;;3.92;3.00;;;36.50;36.70;;;;;;5007539;28;20387;-47
2021/06/02 11:08:51;;;;;;;5.30;3.22;;;36.10;38.20;;;;;;5023429;28;20033;-46
2021/06/02 11:11:20;;;;;;;6.25;3.20;;;36.00;38.40;;;;;;5025374;28;20030;-46
2021/06/02 11:14:14;;;;;;;3.70;3.25;;;36.30;37.80;;;;;;5028588;28;20026;-45
2021/06/02 11:16:48;;;;;;;5.32;3.05;;;36.10;38.80;;;;;;5028600;28;20060;-49
2021/06/02 11:19:17;;;;;;;5.40;3.10;;;35.20;39.40;;;;;;5010426;28;20032;-46
2021/06/02 11:21:52;;;;;;;6.18;3.45;;;35.30;39.10;;;;;;5011170;28;20257;-46
2021/06/02 11:24:33;;;;;;;3.58;3.00;;;35.80;38.20;;;;;;5009101;28;20030;-48
2021/06/02 11:27:11;;;;;;;5.10;3.35;;;35.80;38.10;;;;;;5009287;28;20014;-46
2021/06/02 11:29:56;;;;;;;5.53;3.38;;;35.90;39.50;;;;;;5008488;28;20499;-49
2021/06/02 11:32:31;;;;;;;5.28;3.63;;;36.00;37.90;;;;;;5027764;28;20544;-48
2021/06/02 11:35:03;;;;;;;6.35;3.08;;;36.10;37.40;;;;;;5018533;28;20026;-49
2021/06/02 11:37:34;;;;;;;10.48;4.13;;;35.90;38.30;;;;;;4990479;28;20503;-46
2021/06/02 11:40:04;;;;;;;7.13;3.78;;;35.80;38.20;;;;;;5009878;28;20056;-46
2021/06/02 11:42:45;;;;;;;8.07;3.53;;;35.50;38.60;;;;;;5008622;28;20064;-45
2021/06/02 11:45:19;;;;;;;7.90;3.50;;;35.60;38.40;;;;;;5027039;28;20025;-47
2021/06/02 11:47:48;;;;;;;6.05;3.47;;;35.20;38.10;;;;;;5026381;28;20029;-49
2021/06/02 11:50:17;;;;;;;7.65;3.67;;;35.40;39.00;;;;;;5026763;28;20048;-49
2021/06/02 11:52:44;;;;;;;7.72;3.78;;;34.40;39.10;;;;;;5024935;28;20033;-46
2021/06/02 11:55:14;;;;;;;4.93;3.60;;;34.30;39.30;;;;;;5016209;28;20506;-48
2021/06/02 11:57:42;;;;;;;4.78;3.92;;;34.30;40.00;;;;;;4990175;28;20034;-46
2021/06/02 12:00:10;;;;;;;6.90;4.20;;;34.40;39.40;;;;;;5016576;28;20099;-46
2021/06/02 12:02:36;;;;;;;4.95;3.35;;;33.60;39.30;;;;;;5026816;28;20045;-48
2021/06/02 12:05:33;;;;;;;10.60;4.50;;;33.10;41.20;;;;;;5026440;28;20025;-45
2021/06/02 12:08:00;;;;;;;5.28;4.15;;;32.60;43.40;;;;;;5027503;28;20024;-46
2021/06/02 12:10:46;;;;;;;6.60;4.15;;;31.90;42.80;;;;;;5025310;28;20022;-45
2021/06/02 12:13:28;;;;;;;5.65;4.20;;;31.00;43.70;;;;;;5008333;28;20034;-47
2021/06/02 12:16:00;;;;;;;5.85;4.05;;;30.80;44.70;;;;;;5007122;28;20022;-45
2021/06/02 12:18:49;;;;;;;7.25;3.35;;;30.60;46.60;;;;;;5011524;28;20026;-45
2021/06/02 12:21:19;;;;;;;10.38;4.15;;;30.50;46.10;;;;;;5012341;28;20526;-48
2021/06/02 12:23:49;;;;;;;5.35;4.40;;;30.50;46.00;;;;;;5013282;28;20160;-45
2021/06/02 12:26:24;;;;;;;7.60;3.97;;;30.40;47.60;;;;;;5029572;28;20025;-45
2021/06/02 12:28:50;;;;;;;8.57;4.15;;;30.60;47.20;;;;;;5031227;28;20041;-45
2021/06/02 12:31:42;;;;;;;8.25;4.57;;;30.70;45.50;;;;;;5009305;28;20388;-45
2021/06/02 12:34:19;;;;;;;7.45;4.30;;;30.30;45.70;;;;;;5018394;28;20041;-46
2021/06/02 12:36:49;;;;;;;7.13;4.22;;;30.30;47.00;;;;;;5022131;28;20022;-48
2021/06/02 12:39:17;;;;;;;5.38;4.18;;;29.70;47.40;;;;;;5018206;28;20061;-45
2021/06/02 12:41:45;;;;;;;6.05;4.13;;;29.60;47.20;;;;;;5019243;28;20037;-47
2021/06/02 12:44:11;;;;;;;9.60;4.63;;;29.50;49.30;;;;;;5031516;28;20076;-45
2021/06/02 12:46:37;;;;;;;5.60;4.45;;;29.20;47.10;;;;;;5031655;28;20025;-46
2021/06/02 12:49:08;;;;;;;6.20;4.18;;;29.50;48.00;;;;;;5024781;28;20029;-46
2021/06/02 12:51:34;;;;;;;6.10;3.97;;;29.00;48.60;;;;;;5022156;28;20494;-46
2021/06/02 12:54:01;;;;;;;7.78;4.43;;;29.20;49.40;;;;;;5029180;28;20073;-44
2021/06/02 12:56:26;;;;;;;5.93;4.22;;;29.10;49.10;;;;;;5023803;28;20013;-45
2021/06/02 12:58:57;;;;;;;8.90;4.07;;;29.30;48.30;;;;;;5029946;28;20556;-45
2021/06/02 13:01:31;;;;;;;6.05;4.32;;;29.60;48.40;;;;;;5027522;28;20029;-45
2021/06/02 13:04:00;;;;;;;9.55;4.25;;;29.30;47.50;;;;;;5030582;28;20017;-45
2021/06/02 13:06:30;;;;;;;6.72;4.63;;;29.00;48.80;;;;;;5027926;28;20017;-46
2021/06/02 13:08:56;;;;;;;5.50;4.00;;;28.40;48.00;;;;;;5029887;28;20018;-45
2021/06/02 13:11:27;;;;;;;11.70;4.32;;;28.20;50.10;;;;;;5023821;28;20036;-44
2021/06/02 13:13:53;;;;;;;5.75;3.97;;;28.30;49.80;;;;;;5030549;28;20022;-47
2021/06/02 13:16:21;;;;;;;6.72;3.78;;;28.40;50.50;;;;;;5013205;28;20094;-45
2021/06/02 13:19:05;;;;;;;5.57;3.95;;;28.50;51.20;;;;;;5012351;28;20544;-46
2021/06/02 13:21:32;;;;;;;7.53;4.43;;;28.50;50.10;;;;;;5021242;28;20396;-46
2021/06/02 13:24:14;;;;;;;6.68;3.67;;;28.50;52.00;;;;;;5011112;28;20118;-46
2021/06/02 13:26:50;;;;;;;6.20;4.32;;;28.60;50.30;;;;;;5011103;28;20022;-46
2021/06/02 13:29:17;;;;;;;7.32;4.05;;;28.70;48.30;;;;;;5008870;28;20030;-46